Main page
METAR-TAF:

METAR-TAF

Airports :

Istanbul Sabiha Gökçen, Turkey

Sabiha Gökçen International Airport

latitude: 40-53-55N, longitude: 029-18-33E, elevation: 95 m

Current weather observation

The report was made 48 minutes ago, at 07:20 UTC
Wind 4 kt from the Northeast
Temperature 5°C
Humidity 70%
Pressure 1029 hPa
Visibility 10 km or more
no clouds below 1500 m and no cumulonimbus

METAR: LTFJ 040720Z 05004KT CAVOK 05/00 Q1029 NOSIG RMK RWY24 VRB01KT

Time: 10:08 (08:08 UTC)

Forecast

The report was made 3 hours and 28 minutes ago, at 04:40 UTC
Forecast valid from 04 at 06 UTC to 05 at 06 UTC
Wind 9 kt from the North/Northeast
Visibility 10 km or more
Scattered clouds at a height of 3500 ft
Broken clouds at a height of 20000 ft
Becoming
from 04 at 17 UTC to 04 at 20 UTC
Visibility 10 km or more
no clouds below 1500 m and no cumulonimbus

TAF: LTFJ 040440Z 0406/0506 02009KT 9999 SCT035 BKN200 BECMG 0417/0420 CAVOK

Weather observations and forecasts of more than 4000 airports (METAR and TAF reports).

The available stations are represented by yellow and red dots on the map.

Hover mouse over dot to see the name of the station.

Then click to see weather observations and forecasts.

To change the map : click on the green buttons with a black cross to zoom in, on the green button with a dash to zoom out, or on the green arrows for adjacent maps.


METAR-TAF: